sensor_id;sensor_type;location;lat;lon;timestamp;temperature;humidity
67050;DHT22;53955;52.442;13.284;2023-05-07T00:01:01;11.80;78.10
67050;DHT22;53955;52.442;13.284;2023-05-07T00:03:28;12.00;78.00
67050;DHT22;53955;52.442;13.284;2023-05-07T00:05:54;11.80;77.20
67050;DHT22;53955;52.442;13.284;2023-05-07T00:08:21;11.80;77.30
67050;DHT22;53955;52.442;13.284;2023-05-07T00:10:48;11.90;77.50
67050;DHT22;53955;52.442;13.284;2023-05-07T00:13:14;11.80;78.00
67050;DHT22;53955;52.442;13.284;2023-05-07T00:15:42;11.60;77.80
67050;DHT22;53955;52.442;13.284;2023-05-07T00:18:09;11.50;78.30
67050;DHT22;53955;52.442;13.284;2023-05-07T00:20:35;11.70;78.10
67050;DHT22;53955;52.442;13.284;2023-05-07T00:23:02;11.80;78.00
67050;DHT22;53955;52.442;13.284;2023-05-07T00:25:28;11.80;77.30
67050;DHT22;53955;52.442;13.284;2023-05-07T00:27:55;11.50;77.70
67050;DHT22;53955;52.442;13.284;2023-05-07T00:30:22;11.60;78.40
67050;DHT22;53955;52.442;13.284;2023-05-07T00:32:50;11.60;78.30
67050;DHT22;53955;52.442;13.284;2023-05-07T00:35:17;11.70;77.60
67050;DHT22;53955;52.442;13.284;2023-05-07T00:37:44;11.50;77.70
67050;DHT22;53955;52.442;13.284;2023-05-07T00:40:10;11.70;77.40
67050;DHT22;53955;52.442;13.284;2023-05-07T00:42:37;11.50;77.80
67050;DHT22;53955;52.442;13.284;2023-05-07T00:45:05;11.30;78.00
67050;DHT22;53955;52.442;13.284;2023-05-07T00:47:33;11.20;78.00
67050;DHT22;53955;52.442;13.284;2023-05-07T00:50:01;11.20;78.50
67050;DHT22;53955;52.442;13.284;2023-05-07T00:52:27;11.50;78.10
67050;DHT22;53955;52.442;13.284;2023-05-07T00:54:55;11.40;77.90
67050;DHT22;53955;52.442;13.284;2023-05-07T00:57:22;11.60;77.90
67050;DHT22;53955;52.442;13.284;2023-05-07T00:59:51;11.60;77.20
67050;DHT22;53955;52.442;13.284;2023-05-07T01:02:17;11.60;76.40
67050;DHT22;53955;52.442;13.284;2023-05-07T01:04:44;11.40;77.50
67050;DHT22;53955;52.442;13.284;2023-05-07T01:07:12;11.30;78.00
67050;DHT22;53955;52.442;13.284;2023-05-07T01:09:39;11.50;76.90
67050;DHT22;53955;52.442;13.284;2023-05-07T01:12:07;11.30;77.00
67050;DHT22;53955;52.442;13.284;2023-05-07T01:14:34;11.60;77.00
67050;DHT22;53955;52.442;13.284;2023-05-07T01:17:00;11.60;76.70
67050;DHT22;53955;52.442;13.284;2023-05-07T01:19:29;11.70;76.40
67050;DHT22;53955;52.442;13.284;2023-05-07T01:22:02;11.50;76.10
67050;DHT22;53955;52.442;13.284;2023-05-07T01:24:31;11.70;75.20
67050;DHT22;53955;52.442;13.284;2023-05-07T01:26:58;11.40;76.10
67050;DHT22;53955;52.442;13.284;2023-05-07T01:29:24;11.10;77.00
67050;DHT22;53955;52.442;13.284;2023-05-07T01:31:52;11.30;76.70
67050;DHT22;53955;52.442;13.284;2023-05-07T01:34:20;11.50;76.60
67050;DHT22;53955;52.442;13.284;2023-05-07T01:36:48;11.50;76.30
67050;DHT22;53955;52.442;13.284;2023-05-07T01:39:15;11.60;76.80
67050;DHT22;53955;52.442;13.284;2023-05-07T01:41:44;11.70;77.00
67050;DHT22;53955;52.442;13.284;2023-05-07T01:44:12;11.80;76.20
67050;DHT22;53955;52.442;13.284;2023-05-07T01:46:39;11.50;76.10
67050;DHT22;53955;52.442;13.284;2023-05-07T01:49:06;11.80;76.00
67050;DHT22;53955;52.442;13.284;2023-05-07T01:51:33;11.90;75.40
67050;DHT22;53955;52.442;13.284;2023-05-07T01:54:00;11.80;75.10
67050;DHT22;53955;52.442;13.284;2023-05-07T01:56:27;11.80;75.90
67050;DHT22;53955;52.442;13.284;2023-05-07T01:58:54;11.70;75.50
67050;DHT22;53955;52.442;13.284;2023-05-07T02:01:21;11.80;76.00
67050;DHT22;53955;52.442;13.284;2023-05-07T02:03:48;11.60;76.30
67050;DHT22;53955;52.442;13.284;2023-05-07T02:06:14;11.70;75.80
67050;DHT22;53955;52.442;13.284;2023-05-07T02:08:41;11.30;76.60
67050;DHT22;53955;52.442;13.284;2023-05-07T02:11:08;11.40;77.20
67050;DHT22;53955;52.442;13.284;2023-05-07T02:13:34;11.30;76.40
67050;DHT22;53955;52.442;13.284;2023-05-07T02:16:03;11.20;76.70
67050;DHT22;53955;52.442;13.284;2023-05-07T02:18:29;11.40;77.40
67050;DHT22;53955;52.442;13.284;2023-05-07T02:20:57;11.40;76.40
67050;DHT22;53955;52.442;13.284;2023-05-07T02:23:23;11.30;77.20
67050;DHT22;53955;52.442;13.284;2023-05-07T02:25:51;11.40;76.50
67050;DHT22;53955;52.442;13.284;2023-05-07T02:28:18;11.40;76.30
67050;DHT22;53955;52.442;13.284;2023-05-07T02:30:44;11.50;76.10
67050;DHT22;53955;52.442;13.284;2023-05-07T02:33:12;11.30;76.40
67050;DHT22;53955;52.442;13.284;2023-05-07T02:35:39;11.30;76.50
67050;DHT22;53955;52.442;13.284;2023-05-07T02:38:05;11.50;76.20
67050;DHT22;53955;52.442;13.284;2023-05-07T02:40:32;11.60;75.80
67050;DHT22;53955;52.442;13.284;2023-05-07T02:43:04;11.70;75.40
67050;DHT22;53955;52.442;13.284;2023-05-07T02:45:30;11.90;74.70
67050;DHT22;53955;52.442;13.284;2023-05-07T02:47:57;11.70;74.90
67050;DHT22;53955;52.442;13.284;2023-05-07T02:50:25;11.70;75.30
67050;DHT22;53955;52.442;13.284;2023-05-07T02:52:52;11.80;74.70
67050;DHT22;53955;52.442;13.284;2023-05-07T02:55:19;11.70;74.60
67050;DHT22;53955;52.442;13.284;2023-05-07T02:57:45;11.50;74.30
67050;DHT22;53955;52.442;13.284;2023-05-07T03:00:13;11.40;74.90
67050;DHT22;53955;52.442;13.284;2023-05-07T03:02:41;11.20;76.20
67050;DHT22;53955;52.442;13.284;2023-05-07T03:05:07;11.30;75.20
67050;DHT22;53955;52.442;13.284;2023-05-07T03:07:36;11.50;75.10
67050;DHT22;53955;52.442;13.284;2023-05-07T03:10:03;11.30;74.90
67050;DHT22;53955;52.442;13.284;2023-05-07T03:12:30;11.40;75.40
67050;DHT22;53955;52.442;13.284;2023-05-07T03:14:57;11.30;74.50
67050;DHT22;53955;52.442;13.284;2023-05-07T03:17:24;11.30;74.40
67050;DHT22;53955;52.442;13.284;2023-05-07T03:19:50;11.10;75.50
67050;DHT22;53955;52.442;13.284;2023-05-07T03:22:17;10.80;76.20
67050;DHT22;53955;52.442;13.284;2023-05-07T03:24:45;11.00;76.70
67050;DHT22;53955;52.442;13.284;2023-05-07T03:27:11;11.10;77.00
67050;DHT22;53955;52.442;13.284;2023-05-07T03:29:38;11.20;76.10
67050;DHT22;53955;52.442;13.284;2023-05-07T03:32:04;11.50;74.70
67050;DHT22;53955;52.442;13.284;2023-05-07T03:34:32;11.40;75.10
67050;DHT22;53955;52.442;13.284;2023-05-07T03:36:58;11.40;75.10
67050;DHT22;53955;52.442;13.284;2023-05-07T03:39:25;11.50;74.50
67050;DHT22;53955;52.442;13.284;2023-05-07T03:41:53;11.30;74.50
67050;DHT22;53955;52.442;13.284;2023-05-07T03:44:19;11.50;75.40
67050;DHT22;53955;52.442;13.284;2023-05-07T03:46:46;11.50;74.50
67050;DHT22;53955;52.442;13.284;2023-05-07T03:49:12;11.40;74.30
67050;DHT22;53955;52.442;13.284;2023-05-07T03:51:39;11.60;74.60
67050;DHT22;53955;52.442;13.284;2023-05-07T03:54:05;11.40;74.70
67050;DHT22;53955;52.442;13.284;2023-05-07T03:56:32;11.50;74.90
67050;DHT22;53955;52.442;13.284;2023-05-07T03:59:00;11.50;75.10
67050;DHT22;53955;52.442;13.284;2023-05-07T04:01:27;11.30;74.50
67050;DHT22;53955;52.442;13.284;2023-05-07T04:03:53;11.20;75.40
67050;DHT22;53955;52.442;13.284;2023-05-07T04:06:20;11.40;74.80
67050;DHT22;53955;52.442;13.284;2023-05-07T04:08:47;11.30;75.10
67050;DHT22;53955;52.442;13.284;2023-05-07T04:11:14;11.40;75.30
67050;DHT22;53955;52.442;13.284;2023-05-07T04:13:40;11.20;76.00
67050;DHT22;53955;52.442;13.284;2023-05-07T04:16:08;11.10;76.50
67050;DHT22;53955;52.442;13.284;2023-05-07T04:18:35;11.20;75.70
67050;DHT22;53955;52.442;13.284;2023-05-07T04:21:01;11.30;76.50
67050;DHT22;53955;52.442;13.284;2023-05-07T04:23:28;11.10;75.80
67050;DHT22;53955;52.442;13.284;2023-05-07T04:25:54;11.30;75.80
67050;DHT22;53955;52.442;13.284;2023-05-07T04:28:21;11.10;75.50
67050;DHT22;53955;52.442;13.284;2023-05-07T04:30:48;11.10;76.50
67050;DHT22;53955;52.442;13.284;2023-05-07T04:33:16;11.10;75.60
67050;DHT22;53955;52.442;13.284;2023-05-07T04:35:43;11.20;75.20
67050;DHT22;53955;52.442;13.284;2023-05-07T04:38:09;11.10;76.00
67050;DHT22;53955;52.442;13.284;2023-05-07T04:40:36;11.00;75.90
67050;DHT22;53955;52.442;13.284;2023-05-07T04:43:04;11.00;75.80
67050;DHT22;53955;52.442;13.284;2023-05-07T04:45:31;11.20;74.90
67050;DHT22;53955;52.442;13.284;2023-05-07T04:47:58;11.10;74.80
67050;DHT22;53955;52.442;13.284;2023-05-07T04:50:26;11.20;75.40
67050;DHT22;53955;52.442;13.284;2023-05-07T04:52:52;11.20;73.90
67050;DHT22;53955;52.442;13.284;2023-05-07T04:55:19;11.30;73.90
67050;DHT22;53955;52.442;13.284;2023-05-07T04:57:45;10.90;74.60
67050;DHT22;53955;52.442;13.284;2023-05-07T05:00:12;10.80;74.60
67050;DHT22;53955;52.442;13.284;2023-05-07T05:02:40;10.80;75.40
67050;DHT22;53955;52.442;13.284;2023-05-07T05:05:07;10.70;75.90
67050;DHT22;53955;52.442;13.284;2023-05-07T05:07:35;10.90;75.90
67050;DHT22;53955;52.442;13.284;2023-05-07T05:10:02;10.90;74.70
67050;DHT22;53955;52.442;13.284;2023-05-07T05:12:29;10.80;74.50
67050;DHT22;53955;52.442;13.284;2023-05-07T05:14:56;10.90;74.20
67050;DHT22;53955;52.442;13.284;2023-05-07T05:17:22;10.80;75.10
67050;DHT22;53955;52.442;13.284;2023-05-07T05:19:49;10.80;75.70
67050;DHT22;53955;52.442;13.284;2023-05-07T05:22:16;10.90;75.60
67050;DHT22;53955;52.442;13.284;2023-05-07T05:24:44;10.80;75.40
67050;DHT22;53955;52.442;13.284;2023-05-07T05:27:10;11.10;75.80
67050;DHT22;53955;52.442;13.284;2023-05-07T05:29:37;11.10;75.20
67050;DHT22;53955;52.442;13.284;2023-05-07T05:32:04;11.10;75.10
67050;DHT22;53955;52.442;13.284;2023-05-07T05:34:30;11.20;74.30
67050;DHT22;53955;52.442;13.284;2023-05-07T05:36:58;11.30;74.20
67050;DHT22;53955;52.442;13.284;2023-05-07T05:39:25;11.30;74.20
67050;DHT22;53955;52.442;13.284;2023-05-07T05:41:53;11.30;73.10
67050;DHT22;53955;52.442;13.284;2023-05-07T05:44:20;11.30;73.50
67050;DHT22;53955;52.442;13.284;2023-05-07T05:46:46;11.40;73.10
67050;DHT22;53955;52.442;13.284;2023-05-07T05:49:14;11.10;74.00
67050;DHT22;53955;52.442;13.284;2023-05-07T05:51:43;11.00;73.90
67050;DHT22;53955;52.442;13.284;2023-05-07T05:54:09;11.40;74.40
67050;DHT22;53955;52.442;13.284;2023-05-07T05:56:36;11.70;73.30
67050;DHT22;53955;52.442;13.284;2023-05-07T05:59:04;12.00;71.20
67050;DHT22;53955;52.442;13.284;2023-05-07T06:01:31;12.00;71.50
67050;DHT22;53955;52.442;13.284;2023-05-07T06:03:58;12.20;71.50
67050;DHT22;53955;52.442;13.284;2023-05-07T06:06:25;12.40;71.20
67050;DHT22;53955;52.442;13.284;2023-05-07T06:08:51;12.50;69.70
67050;DHT22;53955;52.442;13.284;2023-05-07T06:11:18;12.40;69.00
67050;DHT22;53955;52.442;13.284;2023-05-07T06:13:45;12.50;69.50
67050;DHT22;53955;52.442;13.284;2023-05-07T06:16:13;12.50;69.10
67050;DHT22;53955;52.442;13.284;2023-05-07T06:18:40;12.60;68.20
67050;DHT22;53955;52.442;13.284;2023-05-07T06:21:06;12.90;66.80
67050;DHT22;53955;52.442;13.284;2023-05-07T06:23:33;12.80;65.80
67050;DHT22;53955;52.442;13.284;2023-05-07T06:26:00;12.90;65.20
67050;DHT22;53955;52.442;13.284;2023-05-07T06:28:26;12.90;65.00
67050;DHT22;53955;52.442;13.284;2023-05-07T06:30:53;13.10;65.60
67050;DHT22;53955;52.442;13.284;2023-05-07T06:33:21;13.00;65.20
67050;DHT22;53955;52.442;13.284;2023-05-07T06:35:47;12.90;62.90
67050;DHT22;53955;52.442;13.284;2023-05-07T06:38:14;12.60;65.40
67050;DHT22;53955;52.442;13.284;2023-05-07T06:40:40;12.40;66.60
67050;DHT22;53955;52.442;13.284;2023-05-07T06:43:06;12.40;67.20
67050;DHT22;53955;52.442;13.284;2023-05-07T06:45:33;12.40;66.50
67050;DHT22;53955;52.442;13.284;2023-05-07T06:47:59;12.30;68.20
67050;DHT22;53955;52.442;13.284;2023-05-07T06:50:27;12.40;66.60
67050;DHT22;53955;52.442;13.284;2023-05-07T06:52:54;12.30;67.00
67050;DHT22;53955;52.442;13.284;2023-05-07T06:55:20;12.20;68.60
67050;DHT22;53955;52.442;13.284;2023-05-07T06:57:47;12.40;68.90
67050;DHT22;53955;52.442;13.284;2023-05-07T07:00:14;12.30;69.10
67050;DHT22;53955;52.442;13.284;2023-05-07T07:02:41;12.50;68.70
67050;DHT22;53955;52.442;13.284;2023-05-07T07:05:09;12.30;69.10
67050;DHT22;53955;52.442;13.284;2023-05-07T07:07:36;12.30;69.20
67050;DHT22;53955;52.442;13.284;2023-05-07T07:10:03;12.30;67.60
67050;DHT22;53955;52.442;13.284;2023-05-07T07:12:30;12.30;68.50
67050;DHT22;53955;52.442;13.284;2023-05-07T07:14:57;12.30;69.70
67050;DHT22;53955;52.442;13.284;2023-05-07T07:17:23;12.10;70.30
67050;DHT22;53955;52.442;13.284;2023-05-07T07:19:50;12.30;68.80
67050;DHT22;53955;52.442;13.284;2023-05-07T07:22:16;12.40;68.90
67050;DHT22;53955;52.442;13.284;2023-05-07T07:24:45;12.60;68.60
67050;DHT22;53955;52.442;13.284;2023-05-07T07:27:11;12.70;65.50
67050;DHT22;53955;52.442;13.284;2023-05-07T07:29:38;12.90;65.40
67050;DHT22;53955;52.442;13.284;2023-05-07T07:32:04;13.00;64.30
67050;DHT22;53955;52.442;13.284;2023-05-07T07:34:31;13.30;62.20
67050;DHT22;53955;52.442;13.284;2023-05-07T07:36:58;13.40;62.30
67050;DHT22;53955;52.442;13.284;2023-05-07T07:39:30;13.70;61.20
67050;DHT22;53955;52.442;13.284;2023-05-07T07:41:58;13.40;61.50
67050;DHT22;53955;52.442;13.284;2023-05-07T07:44:25;13.20;61.40
67050;DHT22;53955;52.442;13.284;2023-05-07T07:46:52;13.40;61.90
67050;DHT22;53955;52.442;13.284;2023-05-07T07:49:18;14.10;59.10
67050;DHT22;53955;52.442;13.284;2023-05-07T07:51:45;14.40;58.50
67050;DHT22;53955;52.442;13.284;2023-05-07T07:54:12;14.80;56.80
67050;DHT22;53955;52.442;13.284;2023-05-07T07:56:38;14.70;57.10
67050;DHT22;53955;52.442;13.284;2023-05-07T07:59:06;14.40;57.00
67050;DHT22;53955;52.442;13.284;2023-05-07T08:01:33;14.80;57.80
67050;DHT22;53955;52.442;13.284;2023-05-07T08:04:00;15.20;56.70
67050;DHT22;53955;52.442;13.284;2023-05-07T08:06:28;15.30;54.40
67050;DHT22;53955;52.442;13.284;2023-05-07T08:08:55;15.20;55.10
67050;DHT22;53955;52.442;13.284;2023-05-07T08:11:22;15.40;55.10
67050;DHT22;53955;52.442;13.284;2023-05-07T08:13:48;15.30;53.30
67050;DHT22;53955;52.442;13.284;2023-05-07T08:16:17;15.20;54.70
67050;DHT22;53955;52.442;13.284;2023-05-07T08:18:43;15.60;51.60
67050;DHT22;53955;52.442;13.284;2023-05-07T08:21:10;15.60;51.90
67050;DHT22;53955;52.442;13.284;2023-05-07T08:23:37;15.60;51.70
67050;DHT22;53955;52.442;13.284;2023-05-07T08:26:03;16.00;51.10
67050;DHT22;53955;52.442;13.284;2023-05-07T08:28:30;16.30;50.70
67050;DHT22;53955;52.442;13.284;2023-05-07T08:30:57;16.30;49.40
67050;DHT22;53955;52.442;13.284;2023-05-07T08:33:27;16.30;49.20
67050;DHT22;53955;52.442;13.284;2023-05-07T08:35:53;16.80;49.40
67050;DHT22;53955;52.442;13.284;2023-05-07T08:38:20;16.10;48.90
67050;DHT22;53955;52.442;13.284;2023-05-07T08:40:47;15.60;50.40
67050;DHT22;53955;52.442;13.284;2023-05-07T08:43:14;15.30;52.90
67050;DHT22;53955;52.442;13.284;2023-05-07T08:45:41;15.30;52.80
67050;DHT22;53955;52.442;13.284;2023-05-07T08:48:09;15.40;52.30
67050;DHT22;53955;52.442;13.284;2023-05-07T08:50:41;15.30;53.20
67050;DHT22;53955;52.442;13.284;2023-05-07T08:53:08;15.50;50.50
67050;DHT22;53955;52.442;13.284;2023-05-07T08:55:35;15.40;51.70
67050;DHT22;53955;52.442;13.284;2023-05-07T08:58:03;15.40;50.30
67050;DHT22;53955;52.442;13.284;2023-05-07T09:00:30;15.40;50.30
67050;DHT22;53955;52.442;13.284;2023-05-07T09:02:56;15.20;51.90
67050;DHT22;53955;52.442;13.284;2023-05-07T09:05:23;15.10;52.30
67050;DHT22;53955;52.442;13.284;2023-05-07T09:07:51;15.10;52.50
67050;DHT22;53955;52.442;13.284;2023-05-07T09:10:17;15.30;52.80
67050;DHT22;53955;52.442;13.284;2023-05-07T09:12:46;15.50;51.20
67050;DHT22;53955;52.442;13.284;2023-05-07T09:15:13;15.70;49.60
67050;DHT22;53955;52.442;13.284;2023-05-07T09:17:40;15.50;50.90
67050;DHT22;53955;52.442;13.284;2023-05-07T09:20:08;15.40;52.10
67050;DHT22;53955;52.442;13.284;2023-05-07T09:22:36;15.30;53.40
67050;DHT22;53955;52.442;13.284;2023-05-07T09:25:05;15.40;51.20
67050;DHT22;53955;52.442;13.284;2023-05-07T09:27:32;15.50;50.50
67050;DHT22;53955;52.442;13.284;2023-05-07T09:29:59;15.80;50.20
67050;DHT22;53955;52.442;13.284;2023-05-07T09:32:29;15.70;50.00
67050;DHT22;53955;52.442;13.284;2023-05-07T09:34:55;15.60;50.90
67050;DHT22;53955;52.442;13.284;2023-05-07T09:37:22;15.90;50.10
67050;DHT22;53955;52.442;13.284;2023-05-07T09:39:49;15.90;48.50
67050;DHT22;53955;52.442;13.284;2023-05-07T09:42:23;16.20;49.30
67050;DHT22;53955;52.442;13.284;2023-05-07T09:44:50;16.10;49.70
67050;DHT22;53955;52.442;13.284;2023-05-07T09:47:19;15.90;49.30
67050;DHT22;53955;52.442;13.284;2023-05-07T09:49:47;15.50;49.90
67050;DHT22;53955;52.442;13.284;2023-05-07T09:52:15;15.80;50.20
67050;DHT22;53955;52.442;13.284;2023-05-07T09:54:43;15.90;51.20
67050;DHT22;53955;52.442;13.284;2023-05-07T09:57:11;15.90;49.60
67050;DHT22;53955;52.442;13.284;2023-05-07T09:59:42;15.90;48.70
67050;DHT22;53955;52.442;13.284;2023-05-07T10:02:09;15.70;48.90
67050;DHT22;53955;52.442;13.284;2023-05-07T10:04:37;15.80;49.20
67050;DHT22;53955;52.442;13.284;2023-05-07T10:07:04;15.50;49.80
67050;DHT22;53955;52.442;13.284;2023-05-07T10:09:32;15.60;52.10
67050;DHT22;53955;52.442;13.284;2023-05-07T10:11:59;15.80;49.50
67050;DHT22;53955;52.442;13.284;2023-05-07T10:14:28;15.70;49.70
67050;DHT22;53955;52.442;13.284;2023-05-07T10:16:56;15.70;49.90
67050;DHT22;53955;52.442;13.284;2023-05-07T10:19:23;15.40;52.20
67050;DHT22;53955;52.442;13.284;2023-05-07T10:21:54;15.40;50.70
67050;DHT22;53955;52.442;13.284;2023-05-07T10:24:26;15.40;51.00
67050;DHT22;53955;52.442;13.284;2023-05-07T10:26:53;15.30;50.90
67050;DHT22;53955;52.442;13.284;2023-05-07T10:29:33;15.60;48.80
67050;DHT22;53955;52.442;13.284;2023-05-07T10:32:28;15.50;49.80
67050;DHT22;53955;52.442;13.284;2023-05-07T10:35:00;15.90;49.60
67050;DHT22;53955;52.442;13.284;2023-05-07T10:37:28;16.10;48.70
67050;DHT22;53955;52.442;13.284;2023-05-07T10:39:55;16.10;48.60
67050;DHT22;53955;52.442;13.284;2023-05-07T10:42:23;16.30;48.80
67050;DHT22;53955;52.442;13.284;2023-05-07T10:44:49;16.00;48.50
67050;DHT22;53955;52.442;13.284;2023-05-07T10:47:17;16.10;47.90
67050;DHT22;53955;52.442;13.284;2023-05-07T10:50:21;16.10;48.60
67050;DHT22;53955;52.442;13.284;2023-05-07T10:55:47;15.90;48.40
67050;DHT22;53955;52.442;13.284;2023-05-07T10:58:24;15.60;48.40
67050;DHT22;53955;52.442;13.284;2023-05-07T11:00:57;15.90;48.50
67050;DHT22;53955;52.442;13.284;2023-05-07T11:03:25;16.00;47.40
67050;DHT22;53955;52.442;13.284;2023-05-07T11:06:12;15.90;45.80
67050;DHT22;53955;52.442;13.284;2023-05-07T11:08:55;16.00;47.30
67050;DHT22;53955;52.442;13.284;2023-05-07T11:11:45;16.00;47.50
67050;DHT22;53955;52.442;13.284;2023-05-07T11:14:13;16.10;47.30
67050;DHT22;53955;52.442;13.284;2023-05-07T11:16:41;16.60;47.60
67050;DHT22;53955;52.442;13.284;2023-05-07T11:19:10;16.90;45.30
67050;DHT22;53955;52.442;13.284;2023-05-07T11:21:38;17.10;45.20
67050;DHT22;53955;52.442;13.284;2023-05-07T11:24:06;17.30;44.50
67050;DHT22;53955;52.442;13.284;2023-05-07T11:26:47;17.80;43.50
67050;DHT22;53955;52.442;13.284;2023-05-07T11:29:16;18.00;42.40
67050;DHT22;53955;52.442;13.284;2023-05-07T11:31:42;18.10;42.30
67050;DHT22;53955;52.442;13.284;2023-05-07T11:34:11;18.10;42.20
67050;DHT22;53955;52.442;13.284;2023-05-07T11:36:42;18.40;42.50
67050;DHT22;53955;52.442;13.284;2023-05-07T11:39:26;18.20;40.10
67050;DHT22;53955;52.442;13.284;2023-05-07T11:41:52;18.20;42.00
67050;DHT22;53955;52.442;13.284;2023-05-07T11:44:19;18.40;40.00
67050;DHT22;53955;52.442;13.284;2023-05-07T11:46:45;18.50;40.30
67050;DHT22;53955;52.442;13.284;2023-05-07T11:49:13;18.50;40.10
67050;DHT22;53955;52.442;13.284;2023-05-07T11:51:40;18.70;39.40
67050;DHT22;53955;52.442;13.284;2023-05-07T11:54:08;18.90;39.40
67050;DHT22;53955;52.442;13.284;2023-05-07T11:56:37;19.00;37.90
67050;DHT22;53955;52.442;13.284;2023-05-07T11:59:04;18.80;38.30
67050;DHT22;53955;52.442;13.284;2023-05-07T12:01:31;18.90;38.40
67050;DHT22;53955;52.442;13.284;2023-05-07T12:03:57;18.90;38.40
67050;DHT22;53955;52.442;13.284;2023-05-07T12:06:25;19.00;38.70
67050;DHT22;53955;52.442;13.284;2023-05-07T12:08:53;19.10;38.50
67050;DHT22;53955;52.442;13.284;2023-05-07T12:11:23;19.10;38.40
67050;DHT22;53955;52.442;13.284;2023-05-07T12:13:50;18.90;37.70
67050;DHT22;53955;52.442;13.284;2023-05-07T12:16:18;18.70;37.70
67050;DHT22;53955;52.442;13.284;2023-05-07T12:18:45;18.60;37.70
67050;DHT22;53955;52.442;13.284;2023-05-07T12:21:12;18.50;38.30
67050;DHT22;53955;52.442;13.284;2023-05-07T12:23:41;18.10;39.60
67050;DHT22;53955;52.442;13.284;2023-05-07T12:26:08;18.10;39.80
67050;DHT22;53955;52.442;13.284;2023-05-07T12:28:38;17.90;38.60
67050;DHT22;53955;52.442;13.284;2023-05-07T12:31:05;18.10;39.20
67050;DHT22;53955;52.442;13.284;2023-05-07T12:33:32;18.40;38.20
67050;DHT22;53955;52.442;13.284;2023-05-07T12:36:03;18.70;38.50
67050;DHT22;53955;52.442;13.284;2023-05-07T12:38:35;18.60;36.90
67050;DHT22;53955;52.442;13.284;2023-05-07T12:41:04;18.50;37.90
67050;DHT22;53955;52.442;13.284;2023-05-07T12:43:31;18.20;37.60
67050;DHT22;53955;52.442;13.284;2023-05-07T12:46:00;18.00;39.80
67050;DHT22;53955;52.442;13.284;2023-05-07T12:48:28;17.70;39.40
67050;DHT22;53955;52.442;13.284;2023-05-07T12:50:55;17.90;39.80
67050;DHT22;53955;52.442;13.284;2023-05-07T12:53:23;17.80;39.60
67050;DHT22;53955;52.442;13.284;2023-05-07T12:55:51;18.20;38.10
67050;DHT22;53955;52.442;13.284;2023-05-07T12:58:20;18.20;38.20
67050;DHT22;53955;52.442;13.284;2023-05-07T13:00:48;18.20;37.90
67050;DHT22;53955;52.442;13.284;2023-05-07T13:03:21;18.30;36.80
67050;DHT22;53955;52.442;13.284;2023-05-07T13:05:49;18.30;38.50
67050;DHT22;53955;52.442;13.284;2023-05-07T13:08:24;18.40;37.70
67050;DHT22;53955;52.442;13.284;2023-05-07T13:10:51;18.40;37.50
67050;DHT22;53955;52.442;13.284;2023-05-07T13:13:17;18.40;36.30
67050;DHT22;53955;52.442;13.284;2023-05-07T13:15:45;18.50;37.50
67050;DHT22;53955;52.442;13.284;2023-05-07T13:18:12;18.70;37.50
67050;DHT22;53955;52.442;13.284;2023-05-07T13:20:39;18.70;35.50
67050;DHT22;53955;52.442;13.284;2023-05-07T13:23:06;18.70;36.60
67050;DHT22;53955;52.442;13.284;2023-05-07T13:25:32;18.90;36.20
67050;DHT22;53955;52.442;13.284;2023-05-07T13:27:59;18.70;35.60
67050;DHT22;53955;52.442;13.284;2023-05-07T13:30:26;18.70;36.10
67050;DHT22;53955;52.442;13.284;2023-05-07T13:32:55;18.90;36.00
67050;DHT22;53955;52.442;13.284;2023-05-07T13:35:22;19.00;35.80
67050;DHT22;53955;52.442;13.284;2023-05-07T13:37:48;19.00;35.40
67050;DHT22;53955;52.442;13.284;2023-05-07T13:40:15;19.00;34.40
67050;DHT22;53955;52.442;13.284;2023-05-07T13:42:42;19.00;33.90
67050;DHT22;53955;52.442;13.284;2023-05-07T13:45:09;19.00;33.60
67050;DHT22;53955;52.442;13.284;2023-05-07T13:47:36;18.90;34.40
67050;DHT22;53955;52.442;13.284;2023-05-07T13:50:05;18.80;35.50
67050;DHT22;53955;52.442;13.284;2023-05-07T13:52:32;18.90;35.50
67050;DHT22;53955;52.442;13.284;2023-05-07T13:54:59;18.90;34.70
67050;DHT22;53955;52.442;13.284;2023-05-07T13:57:25;18.80;34.90
67050;DHT22;53955;52.442;13.284;2023-05-07T13:59:52;18.60;35.60
67050;DHT22;53955;52.442;13.284;2023-05-07T14:02:18;18.50;35.20
67050;DHT22;53955;52.442;13.284;2023-05-07T14:04:45;18.80;36.30
67050;DHT22;53955;52.442;13.284;2023-05-07T14:07:13;18.80;35.10
67050;DHT22;53955;52.442;13.284;2023-05-07T14:09:40;18.70;34.60
67050;DHT22;53955;52.442;13.284;2023-05-07T14:12:07;18.80;35.20
67050;DHT22;53955;52.442;13.284;2023-05-07T14:14:33;18.60;35.70
67050;DHT22;53955;52.442;13.284;2023-05-07T14:17:00;18.50;35.60
67050;DHT22;53955;52.442;13.284;2023-05-07T14:19:27;18.80;36.60
67050;DHT22;53955;52.442;13.284;2023-05-07T14:21:53;18.40;34.10
67050;DHT22;53955;52.442;13.284;2023-05-07T14:24:21;18.80;35.20
67050;DHT22;53955;52.442;13.284;2023-05-07T14:26:48;18.80;34.90
67050;DHT22;53955;52.442;13.284;2023-05-07T14:29:14;18.70;34.30
67050;DHT22;53955;52.442;13.284;2023-05-07T14:31:44;18.90;34.60
67050;DHT22;53955;52.442;13.284;2023-05-07T14:34:10;19.00;35.50
67050;DHT22;53955;52.442;13.284;2023-05-07T14:36:37;18.90;35.70
67050;DHT22;53955;52.442;13.284;2023-05-07T14:39:04;18.90;35.30
67050;DHT22;53955;52.442;13.284;2023-05-07T14:41:32;18.60;35.50
67050;DHT22;53955;52.442;13.284;2023-05-07T14:43:59;18.60;36.00
67050;DHT22;53955;52.442;13.284;2023-05-07T14:46:25;18.80;35.40
67050;DHT22;53955;52.442;13.284;2023-05-07T14:48:52;19.10;35.00
67050;DHT22;53955;52.442;13.284;2023-05-07T14:51:19;19.00;34.60
67050;DHT22;53955;52.442;13.284;2023-05-07T14:53:47;19.20;33.80
67050;DHT22;53955;52.442;13.284;2023-05-07T14:56:13;19.20;34.20
67050;DHT22;53955;52.442;13.284;2023-05-07T14:58:41;19.00;33.90
67050;DHT22;53955;52.442;13.284;2023-05-07T15:01:08;19.20;35.70
67050;DHT22;53955;52.442;13.284;2023-05-07T15:03:34;19.20;34.10
67050;DHT22;53955;52.442;13.284;2023-05-07T15:06:01;19.20;34.20
67050;DHT22;53955;52.442;13.284;2023-05-07T15:08:28;19.10;33.70
67050;DHT22;53955;52.442;13.284;2023-05-07T15:10:55;18.80;34.40
67050;DHT22;53955;52.442;13.284;2023-05-07T15:13:22;18.50;34.60
67050;DHT22;53955;52.442;13.284;2023-05-07T15:15:50;18.40;35.50
67050;DHT22;53955;52.442;13.284;2023-05-07T15:18:16;18.20;37.20
67050;DHT22;53955;52.442;13.284;2023-05-07T15:20:43;18.10;37.80